createdAt,value
2022-12-16T00:01:36.442Z,-1.60
2022-12-16T00:06:39.838Z,-1.60
2022-12-16T00:11:47.020Z,-1.70
2022-12-16T00:16:50.419Z,-1.80
2022-12-16T00:21:53.863Z,-1.80
2022-12-16T00:27:02.799Z,-1.80
2022-12-16T00:32:06.644Z,-1.80
2022-12-16T00:37:11.200Z,-1.90
2022-12-16T00:42:15.839Z,-1.80
2022-12-16T00:47:19.056Z,-1.80
2022-12-16T00:52:22.324Z,-1.80
2022-12-16T00:57:27.132Z,-1.90
2022-12-16T01:02:30.701Z,-1.90
2022-12-16T01:07:35.126Z,-1.90
2022-12-16T01:12:41.918Z,-2.00
2022-12-16T01:17:45.605Z,-2.00
2022-12-16T01:22:49.356Z,-2.10
2022-12-16T01:27:58.640Z,-2.10
2022-12-16T01:33:02.011Z,-2.10
2022-12-16T01:38:06.796Z,-2.10
2022-12-16T01:43:13.862Z,-2.20
2022-12-16T01:48:23.422Z,-2.20
2022-12-16T01:53:27.797Z,-2.10
2022-12-16T01:58:38.043Z,-2.20
2022-12-16T02:03:43.333Z,-2.20
2022-12-16T02:08:48.474Z,-2.20
2022-12-16T02:14:16.681Z,-2.30
2022-12-16T02:19:46.909Z,-2.20
2022-12-16T02:25:12.755Z,-2.30
2022-12-16T02:30:40.556Z,-2.30
2022-12-16T02:35:51.814Z,-2.30
2022-12-16T02:41:02.267Z,-2.40
2022-12-16T02:46:08.932Z,-2.30
2022-12-16T02:51:12.499Z,-2.30
2022-12-16T02:56:27.894Z,-2.40
2022-12-16T03:01:39.395Z,-2.40
2022-12-16T03:06:47.505Z,-2.50
2022-12-16T03:11:54.292Z,-2.40
2022-12-16T03:17:00.365Z,-2.50
2022-12-16T03:22:08.705Z,-2.50
2022-12-16T03:27:18.507Z,-2.50
2022-12-16T03:32:29.210Z,-2.50
2022-12-16T03:37:37.324Z,-2.50
2022-12-16T03:42:42.300Z,-2.40
2022-12-16T03:47:52.390Z,-2.40
2022-12-16T03:52:55.651Z,-2.50
2022-12-16T03:58:00.226Z,-2.50
2022-12-16T04:03:06.774Z,-2.60
2022-12-16T04:08:10.152Z,-2.60
2022-12-16T04:13:31.056Z,-2.60
2022-12-16T04:18:53.868Z,-2.60
2022-12-16T04:24:16.976Z,-2.60
2022-12-16T04:29:22.494Z,-2.60
2022-12-16T04:34:27.780Z,-2.60
2022-12-16T04:39:52.796Z,-2.60
2022-12-16T04:45:14.136Z,-2.60
2022-12-16T04:50:51.182Z,-2.60
2022-12-16T04:56:13.811Z,-2.60
2022-12-16T05:01:36.379Z,-2.50
2022-12-16T05:06:58.370Z,-2.50
2022-12-16T05:12:15.502Z,-2.60
2022-12-16T05:17:36.512Z,-2.60
2022-12-16T05:22:59.061Z,-2.60
2022-12-16T05:28:20.943Z,-2.60
2022-12-16T05:33:41.863Z,-2.60
2022-12-16T05:39:04.022Z,-2.60
2022-12-16T05:44:25.581Z,-2.60
2022-12-16T05:49:46.282Z,-2.60
2022-12-16T05:55:08.347Z,-2.60
2022-12-16T06:00:30.909Z,-2.60
2022-12-16T06:05:51.742Z,-2.60
2022-12-16T06:11:13.677Z,-2.60
2022-12-16T06:16:37.141Z,-2.60
2022-12-16T06:21:59.810Z,-2.60
2022-12-16T06:27:32.148Z,-2.60
2022-12-16T06:32:53.242Z,-2.70
2022-12-16T06:38:25.995Z,-2.70
2022-12-16T06:43:48.171Z,-2.70
2022-12-16T06:49:08.791Z,-2.70
2022-12-16T06:54:29.258Z,-2.70
2022-12-16T06:59:51.348Z,-2.70
2022-12-16T07:05:11.902Z,-2.70
2022-12-16T07:10:32.703Z,-2.70
2022-12-16T07:15:54.993Z,-2.70
2022-12-16T07:21:15.647Z,-2.70
2022-12-16T07:26:36.145Z,-2.60
2022-12-16T07:32:12.903Z,-2.60
2022-12-16T07:37:33.689Z,-2.60
2022-12-16T07:42:54.776Z,-2.60
2022-12-16T07:48:16.931Z,-2.60
2022-12-16T07:53:38.256Z,-2.50
2022-12-16T07:58:59.792Z,-2.50
2022-12-16T08:04:22.009Z,-2.40
2022-12-16T08:09:42.699Z,-2.40
2022-12-16T08:15:03.407Z,-2.30
2022-12-16T08:20:27.091Z,-2.30
2022-12-16T08:25:47.801Z,-2.20
2022-12-16T08:31:09.014Z,-2.10
2022-12-16T08:36:31.007Z,-2.00
2022-12-16T08:41:51.523Z,-1.80
2022-12-16T08:47:13.209Z,-1.70
2022-12-16T08:52:49.313Z,-1.40
2022-12-16T08:58:12.420Z,-1.40
2022-12-16T09:03:33.372Z,-1.40
2022-12-16T09:08:55.746Z,-1.40
2022-12-16T09:14:19.095Z,-1.30
2022-12-16T09:19:39.917Z,-1.30
2022-12-16T09:25:01.887Z,-1.40
2022-12-16T09:30:23.304Z,-1.60
2022-12-16T09:35:43.885Z,-1.60
2022-12-16T09:41:14.059Z,-1.50
2022-12-16T09:46:44.939Z,-1.30
2022-12-16T09:52:06.598Z,-0.90
2022-12-16T09:57:28.694Z,-0.50
2022-12-16T10:02:49.703Z,-0.40
2022-12-16T10:08:20.182Z,-0.40
2022-12-16T10:13:51.980Z,-0.40
2022-12-16T10:19:23.755Z,-0.40
2022-12-16T10:24:54.285Z,-0.40
2022-12-16T10:30:20.247Z,-0.20
2022-12-16T10:35:45.701Z,0.00
2022-12-16T10:41:06.591Z,0.20
2022-12-16T10:46:36.643Z,0.20
2022-12-16T10:52:06.771Z,0.30
2022-12-16T10:57:35.292Z,0.50
2022-12-16T11:02:58.432Z,0.50
2022-12-16T11:08:19.187Z,0.40
2022-12-16T11:13:44.976Z,0.60
2022-12-16T11:19:09.302Z,0.40
2022-12-16T11:24:35.614Z,0.60
2022-12-16T11:30:21.533Z,0.50
2022-12-16T11:35:46.937Z,0.70
2022-12-16T11:41:09.068Z,0.80
2022-12-16T11:46:38.532Z,0.80
2022-12-16T11:52:28.379Z,0.80
2022-12-16T11:57:57.337Z,0.70
2022-12-16T12:03:24.518Z,0.40
2022-12-16T12:08:58.040Z,0.20
2022-12-16T12:14:28.954Z,0.20
2022-12-16T12:20:00.097Z,0.50
2022-12-16T12:25:29.398Z,0.70
2022-12-16T12:31:05.506Z,0.80
2022-12-16T12:36:37.938Z,0.70
2022-12-16T12:42:16.043Z,0.90
2022-12-16T12:47:39.904Z,0.90
2022-12-16T12:53:32.420Z,0.90
2022-12-16T12:58:57.578Z,0.90
2022-12-16T13:04:25.763Z,0.70
2022-12-16T13:09:54.860Z,0.80
2022-12-16T13:15:23.142Z,0.70
2022-12-16T13:20:56.763Z,0.60
2022-12-16T13:26:29.125Z,0.80
2022-12-16T13:31:52.111Z,0.80
2022-12-16T13:37:23.556Z,0.60
2022-12-16T13:43:10.941Z,0.70
2022-12-16T13:48:57.441Z,0.60
2022-12-16T13:54:19.210Z,0.50
2022-12-16T13:59:43.492Z,0.60
2022-12-16T14:05:17.750Z,0.60
2022-12-16T14:10:47.416Z,0.40
2022-12-16T14:16:20.387Z,0.30
2022-12-16T14:21:47.806Z,0.20
2022-12-16T14:27:09.365Z,0.00
2022-12-16T14:32:40.084Z,-0.20
2022-12-16T14:38:02.122Z,-0.40
2022-12-16T14:43:29.423Z,-0.50
2022-12-16T14:48:54.033Z,-0.80
2022-12-16T14:54:35.303Z,-1.00
2022-12-16T14:59:55.798Z,-1.20
2022-12-16T15:05:16.891Z,-1.30
2022-12-16T15:10:45.388Z,-1.40
2022-12-16T15:16:12.546Z,-1.50
2022-12-16T15:21:33.513Z,-1.60
2022-12-16T15:26:55.668Z,-1.60
2022-12-16T15:32:16.473Z,-1.80
2022-12-16T15:37:43.759Z,-1.80
2022-12-16T15:43:09.887Z,-1.80
2022-12-16T15:48:35.134Z,-1.90
2022-12-16T15:53:57.605Z,-2.00
2022-12-16T15:59:40.148Z,-2.00
2022-12-16T16:05:05.898Z,-2.10
2022-12-16T16:10:34.047Z,-2.20
2022-12-16T16:15:56.258Z,-2.20
2022-12-16T16:21:16.987Z,-2.20
2022-12-16T16:26:40.985Z,-2.30
2022-12-16T16:32:04.307Z,-2.30
2022-12-16T16:37:33.230Z,-2.40
2022-12-16T16:42:53.964Z,-2.50
2022-12-16T16:48:25.176Z,-2.40
2022-12-16T16:53:55.087Z,-2.50
2022-12-16T16:59:15.711Z,-2.50
2022-12-16T17:04:37.668Z,-2.50
2022-12-16T17:09:58.386Z,-2.50
2022-12-16T17:15:19.069Z,-2.50
2022-12-16T17:20:44.345Z,-2.50
2022-12-16T17:26:05.168Z,-2.60
2022-12-16T17:31:26.946Z,-2.60
2022-12-16T17:36:49.227Z,-2.60
2022-12-16T17:42:10.407Z,-2.60
2022-12-16T17:47:31.253Z,-2.60
2022-12-16T17:52:53.327Z,-2.70
2022-12-16T17:58:14.521Z,-2.70
2022-12-16T18:03:35.863Z,-2.80
2022-12-16T18:08:58.790Z,-2.90
2022-12-16T18:14:19.580Z,-2.90
2022-12-16T18:19:40.399Z,-3.00
2022-12-16T18:25:02.520Z,-3.00
2022-12-16T18:30:23.711Z,-3.10
2022-12-16T18:35:44.552Z,-3.10
2022-12-16T18:41:06.633Z,-3.10
2022-12-16T18:46:28.034Z,-3.20
2022-12-16T18:51:49.051Z,-3.20
2022-12-16T18:57:10.147Z,-3.20
2022-12-16T19:02:31.051Z,-3.30
2022-12-16T19:07:51.655Z,-3.30
2022-12-16T19:13:15.872Z,-3.30
2022-12-16T19:18:37.011Z,-3.30
2022-12-16T19:23:57.923Z,-3.40
2022-12-16T19:29:20.090Z,-3.50
2022-12-16T19:34:40.612Z,-3.40
2022-12-16T19:39:57.727Z,-3.40
2022-12-16T19:45:19.912Z,-3.40
2022-12-16T19:50:40.921Z,-3.50
2022-12-16T19:56:01.644Z,-3.50
2022-12-16T20:01:28.005Z,-3.50
2022-12-16T20:06:49.712Z,-3.50
2022-12-16T20:12:10.936Z,-3.50
2022-12-16T20:17:33.684Z,-3.50
2022-12-16T20:22:54.345Z,-3.50
2022-12-16T20:28:21.729Z,-3.50
2022-12-16T20:33:47.425Z,-3.50
2022-12-16T20:39:04.658Z,-3.50
2022-12-16T20:44:25.645Z,-3.60
2022-12-16T20:49:47.834Z,-3.70
2022-12-16T20:55:08.466Z,-3.90
2022-12-16T21:00:31.647Z,-4.00
2022-12-16T21:05:54.002Z,-4.10
2022-12-16T21:11:31.567Z,-4.10
2022-12-16T21:16:52.181Z,-4.20
2022-12-16T21:22:17.639Z,-4.20
2022-12-16T21:27:38.527Z,-4.30
2022-12-16T21:32:59.244Z,-4.20
2022-12-16T21:38:30.094Z,-4.30
2022-12-16T21:43:53.124Z,-4.40
2022-12-16T21:49:14.648Z,-4.40
2022-12-16T21:54:36.650Z,-4.50
2022-12-16T21:59:57.476Z,-4.60
2022-12-16T22:05:18.357Z,-4.70
2022-12-16T22:10:40.695Z,-4.70
2022-12-16T22:16:02.794Z,-4.70
2022-12-16T22:21:25.002Z,-4.70
2022-12-16T22:26:47.253Z,-4.70
2022-12-16T22:32:08.206Z,-4.60
2022-12-16T22:37:28.925Z,-4.60
2022-12-16T22:42:51.665Z,-4.50
2022-12-16T22:48:12.896Z,-4.50
2022-12-16T22:53:39.884Z,-4.40
2022-12-16T22:59:02.612Z,-4.30
2022-12-16T23:04:24.135Z,-4.30
2022-12-16T23:09:46.186Z,-4.20
2022-12-16T23:15:13.343Z,-4.20
2022-12-16T23:20:39.803Z,-4.20
2022-12-16T23:26:00.864Z,-4.10
2022-12-16T23:31:22.931Z,-4.10
2022-12-16T23:36:43.635Z,-4.10
2022-12-16T23:42:05.438Z,-4.20
2022-12-16T23:47:27.832Z,-4.30
2022-12-16T23:52:48.383Z,-4.50
2022-12-16T23:58:19.149Z,-4.80
